createdAt,value
2022-09-03T00:01:36.097Z,1.50
2022-09-03T00:04:11.455Z,1.23
2022-09-03T00:06:51.023Z,1.05
2022-09-03T00:09:33.072Z,1.30
2022-09-03T00:12:13.980Z,1.10
2022-09-03T00:14:53.172Z,1.20
2022-09-03T00:17:25.834Z,1.00
2022-09-03T00:20:07.536Z,1.13
2022-09-03T00:22:40.153Z,1.08
2022-09-03T00:25:14.212Z,1.30
2022-09-03T00:27:45.163Z,1.40
2022-09-03T00:30:17.131Z,1.20
2022-09-03T00:32:49.762Z,1.20
2022-09-03T00:35:37.528Z,1.35
2022-09-03T00:38:06.152Z,1.00
2022-09-03T00:41:06.787Z,1.35
2022-09-03T00:43:56.891Z,1.48
2022-09-03T00:46:35.349Z,1.35
2022-09-03T00:49:26.795Z,1.15
2022-09-03T00:51:56.330Z,1.35
2022-09-03T00:54:56.468Z,1.30
2022-09-03T00:57:41.185Z,1.30
2022-09-03T01:00:12.961Z,1.30
2022-09-03T01:03:01.919Z,2.00
2022-09-03T01:06:07.166Z,1.35
2022-09-03T01:08:57.601Z,1.20
2022-09-03T01:11:47.145Z,1.20
2022-09-03T01:14:32.338Z,1.50
2022-09-03T01:16:59.524Z,1.40
2022-09-03T01:19:44.288Z,1.38
2022-09-03T01:22:35.570Z,1.13
2022-09-03T01:25:12.122Z,1.20
2022-09-03T01:28:20.939Z,1.30
2022-09-03T01:31:27.092Z,1.38
2022-09-03T01:34:32.074Z,1.20
2022-09-03T01:37:15.687Z,1.30
2022-09-03T01:39:47.674Z,1.67
2022-09-03T01:42:37.600Z,1.20
2022-09-03T01:45:30.121Z,1.50
2022-09-03T01:48:23.099Z,1.83
2022-09-03T01:51:06.326Z,1.40
2022-09-03T01:53:55.118Z,1.35
2022-09-03T01:56:59.735Z,1.85
2022-09-03T01:59:45.017Z,1.50
2022-09-03T02:02:26.831Z,1.70
2022-09-03T02:05:04.157Z,1.88
2022-09-03T02:07:37.298Z,1.80
2022-09-03T02:10:08.881Z,1.65
2022-09-03T02:12:40.103Z,1.70
2022-09-03T02:15:12.453Z,1.50
2022-09-03T02:17:41.635Z,1.52
2022-09-03T02:20:12.492Z,1.50
2022-09-03T02:22:40.533Z,1.60
2022-09-03T02:25:08.818Z,1.63
2022-09-03T02:27:35.384Z,2.03
2022-09-03T02:30:02.049Z,1.65
2022-09-03T02:32:28.904Z,1.70
2022-09-03T02:34:55.949Z,1.85
2022-09-03T02:37:22.932Z,1.85
2022-09-03T02:39:52.061Z,1.98
2022-09-03T02:42:19.130Z,1.65
2022-09-03T02:44:50.027Z,2.03
2022-09-03T02:47:17.959Z,1.90
2022-09-03T02:49:46.777Z,1.80
2022-09-03T02:52:13.364Z,1.60
2022-09-03T02:54:41.186Z,1.80
2022-09-03T02:57:08.739Z,1.67
2022-09-03T02:59:36.071Z,1.70
2022-09-03T03:02:03.879Z,1.92
2022-09-03T03:04:32.298Z,1.80
2022-09-03T03:06:59.210Z,1.73
2022-09-03T03:09:26.060Z,1.67
2022-09-03T03:11:55.228Z,1.95
2022-09-03T03:14:22.803Z,1.55
2022-09-03T03:16:50.644Z,1.75
2022-09-03T03:19:17.800Z,1.90
2022-09-03T03:21:44.785Z,1.95
2022-09-03T03:24:11.686Z,1.63
2022-09-03T03:26:38.378Z,1.63
2022-09-03T03:29:05.152Z,1.70
2022-09-03T03:31:32.913Z,1.60
2022-09-03T03:34:02.130Z,1.60
2022-09-03T03:36:31.601Z,1.90
2022-09-03T03:38:59.614Z,1.67
2022-09-03T03:41:29.151Z,1.77
2022-09-03T03:44:00.011Z,1.90
2022-09-03T03:46:35.020Z,1.80
2022-09-03T03:49:01.857Z,1.90
2022-09-03T03:51:28.764Z,1.80
2022-09-03T03:53:56.830Z,2.05
2022-09-03T03:56:26.772Z,1.80
2022-09-03T03:58:54.749Z,1.83
2022-09-03T04:01:23.956Z,1.88
2022-09-03T04:03:51.509Z,1.98
2022-09-03T04:06:19.803Z,1.70
2022-09-03T04:08:49.586Z,1.77
2022-09-03T04:11:19.694Z,1.85
2022-09-03T04:13:47.926Z,1.67
2022-09-03T04:16:16.366Z,1.90
2022-09-03T04:18:43.023Z,2.10
2022-09-03T04:21:12.943Z,2.03
2022-09-03T04:23:44.704Z,1.85
2022-09-03T04:26:13.816Z,1.80
2022-09-03T04:28:41.975Z,1.92
2022-09-03T04:31:10.858Z,2.10
2022-09-03T04:33:39.385Z,1.85
2022-09-03T04:36:11.593Z,1.75
2022-09-03T04:38:40.621Z,1.80
2022-09-03T04:41:08.664Z,1.95
2022-09-03T04:43:35.713Z,1.92
2022-09-03T04:46:10.837Z,1.90
2022-09-03T04:48:47.510Z,1.80
2022-09-03T04:51:16.721Z,2.17
2022-09-03T04:53:46.364Z,1.88
2022-09-03T04:56:21.266Z,1.70
2022-09-03T04:58:50.969Z,1.70
2022-09-03T05:01:19.966Z,1.83
2022-09-03T05:03:47.248Z,1.52
2022-09-03T05:06:17.120Z,1.70
2022-09-03T05:08:48.173Z,1.63
2022-09-03T05:11:14.991Z,1.45
2022-09-03T05:13:42.151Z,1.58
2022-09-03T05:16:12.248Z,1.20
2022-09-03T05:18:39.535Z,1.60
2022-09-03T05:21:12.322Z,1.35
2022-09-03T05:23:42.326Z,1.40
2022-09-03T05:26:15.894Z,1.65
2022-09-03T05:28:44.054Z,1.15
2022-09-03T05:31:16.613Z,1.20
2022-09-03T05:33:45.763Z,1.30
2022-09-03T05:36:19.567Z,1.00
2022-09-03T05:38:47.819Z,0.90
2022-09-03T05:41:15.612Z,1.20
2022-09-03T05:43:43.545Z,1.17
2022-09-03T05:46:13.455Z,0.95
2022-09-03T05:48:41.349Z,1.20
2022-09-03T05:51:11.306Z,0.80
2022-09-03T05:53:39.998Z,1.20
2022-09-03T05:56:12.123Z,0.90
2022-09-03T05:58:43.518Z,1.13
2022-09-03T06:01:13.084Z,0.90
2022-09-03T06:03:47.732Z,1.23
2022-09-03T06:06:15.513Z,1.00
2022-09-03T06:08:44.909Z,1.10
2022-09-03T06:11:12.602Z,1.17
2022-09-03T06:13:39.402Z,1.10
2022-09-03T06:16:07.364Z,1.15
2022-09-03T06:18:34.495Z,0.98
2022-09-03T06:21:15.251Z,0.90
2022-09-03T06:23:46.585Z,0.90
2022-09-03T06:26:15.094Z,1.00
2022-09-03T06:28:45.835Z,0.80
2022-09-03T06:31:14.546Z,0.82
2022-09-03T06:33:42.479Z,0.90
2022-09-03T06:36:11.664Z,0.80
2022-09-03T06:38:38.756Z,0.80
2022-09-03T06:41:23.766Z,0.80
2022-09-03T06:43:55.632Z,0.90
2022-09-03T06:46:23.940Z,1.00
2022-09-03T06:48:51.614Z,1.20
2022-09-03T06:51:20.639Z,0.85
2022-09-03T06:53:50.053Z,1.00
2022-09-03T06:56:19.804Z,0.80
2022-09-03T06:58:48.635Z,0.85
2022-09-03T07:01:18.256Z,1.02
2022-09-03T07:03:46.682Z,0.80
2022-09-03T07:06:18.649Z,0.90
2022-09-03T07:08:46.985Z,1.00
2022-09-03T07:11:16.206Z,0.90
2022-09-03T07:13:45.278Z,1.02
2022-09-03T07:16:16.638Z,0.85
2022-09-03T07:18:43.828Z,1.05
2022-09-03T07:21:20.118Z,0.75
2022-09-03T07:23:47.861Z,0.90
2022-09-03T07:26:17.769Z,0.80
2022-09-03T07:28:45.973Z,0.60
2022-09-03T07:31:25.974Z,1.00
2022-09-03T07:33:57.349Z,1.05
2022-09-03T07:36:26.165Z,0.90
2022-09-03T07:38:59.011Z,1.13
2022-09-03T07:41:28.726Z,0.90
2022-09-03T07:43:57.223Z,0.80
2022-09-03T07:46:27.305Z,1.20
2022-09-03T07:48:56.616Z,0.73
2022-09-03T07:51:28.297Z,0.80
2022-09-03T07:54:02.227Z,1.10
2022-09-03T07:56:32.795Z,0.90
2022-09-03T07:58:59.562Z,1.00
2022-09-03T08:01:31.612Z,0.73
2022-09-03T08:03:58.692Z,1.10
2022-09-03T08:06:27.983Z,1.13
2022-09-03T08:09:05.023Z,0.90
2022-09-03T08:11:35.934Z,1.40
2022-09-03T08:14:06.265Z,0.80
2022-09-03T08:16:36.623Z,1.05
2022-09-03T08:19:03.837Z,0.90
2022-09-03T08:21:30.589Z,0.93
2022-09-03T08:24:03.968Z,0.93
2022-09-03T08:26:36.408Z,0.90
2022-09-03T08:29:04.075Z,0.88
2022-09-03T08:31:32.292Z,1.20
2022-09-03T08:34:07.498Z,0.80
2022-09-03T08:36:36.903Z,0.88
2022-09-03T08:39:09.352Z,0.88
2022-09-03T08:41:50.634Z,1.10
2022-09-03T08:44:34.615Z,1.20
2022-09-03T08:47:17.837Z,0.98
2022-09-03T08:50:22.147Z,0.80
2022-09-03T08:52:53.728Z,0.88
2022-09-03T08:55:27.376Z,0.88
2022-09-03T08:58:11.688Z,0.77
2022-09-03T09:01:01.488Z,0.90
2022-09-03T09:04:00.173Z,0.85
2022-09-03T09:06:37.392Z,0.70
2022-09-03T09:09:09.564Z,0.90
2022-09-03T09:12:10.132Z,0.90
2022-09-03T09:15:05.524Z,0.60
2022-09-03T09:17:51.182Z,0.68
2022-09-03T09:20:49.328Z,0.90
2022-09-03T09:23:26.141Z,0.80
2022-09-03T09:25:55.746Z,0.77
2022-09-03T09:28:25.176Z,0.90
2022-09-03T09:30:56.633Z,0.88
2022-09-03T09:33:25.599Z,0.88
2022-09-03T09:35:52.897Z,0.80
2022-09-03T09:38:37.392Z,0.68
2022-09-03T09:41:31.175Z,0.90
2022-09-03T09:44:08.554Z,0.75
2022-09-03T09:46:41.414Z,0.82
2022-09-03T09:53:21.597Z,0.80
2022-09-03T09:55:52.981Z,0.70
2022-09-03T09:58:21.539Z,0.80
2022-09-03T10:01:03.473Z,1.05
2022-09-03T10:03:37.423Z,0.70
2022-09-03T10:06:30.630Z,0.90
2022-09-03T10:09:29.914Z,0.75
2022-09-03T10:12:18.349Z,1.00
2022-09-03T10:14:53.695Z,0.80
2022-09-03T10:17:42.287Z,1.10
2022-09-03T10:20:30.611Z,0.73
2022-09-03T10:23:11.836Z,0.80
2022-09-03T10:26:07.697Z,0.73
2022-09-03T10:28:42.582Z,0.68
2022-09-03T10:31:38.711Z,0.80
2022-09-03T10:34:37.115Z,0.80
2022-09-03T10:37:13.315Z,0.90
2022-09-03T10:40:15.047Z,1.00
2022-09-03T10:42:45.720Z,0.60
2022-09-03T10:45:37.396Z,1.00
2022-09-03T10:48:22.405Z,0.90
2022-09-03T10:51:23.301Z,0.90
2022-09-03T10:54:16.126Z,0.77
2022-09-03T10:56:57.511Z,0.60
2022-09-03T10:59:43.043Z,0.80
2022-09-03T11:02:21.795Z,0.95
2022-09-03T11:05:07.604Z,0.80
2022-09-03T11:07:43.747Z,0.73
2022-09-03T11:10:30.567Z,0.65
2022-09-03T11:13:09.052Z,0.95
2022-09-03T11:15:56.366Z,0.57
2022-09-03T11:18:43.365Z,0.80
2022-09-03T11:21:14.594Z,0.80
2022-09-03T11:23:47.658Z,1.10
2022-09-03T11:26:18.427Z,0.80
2022-09-03T11:29:04.050Z,0.80
2022-09-03T11:31:31.435Z,0.80
2022-09-03T11:34:17.862Z,0.88
2022-09-03T11:37:20.913Z,1.05
2022-09-03T11:39:56.629Z,0.80
2022-09-03T11:42:35.968Z,0.77
2022-09-03T11:45:21.271Z,1.00
2022-09-03T11:47:48.754Z,0.73
2022-09-03T11:50:27.837Z,0.70
2022-09-03T11:53:25.238Z,0.85
2022-09-03T11:56:07.314Z,0.88
2022-09-03T11:58:42.805Z,1.25
2022-09-03T12:01:15.086Z,0.90
2022-09-03T12:03:57.798Z,0.82
2022-09-03T12:06:43.109Z,0.80
2022-09-03T12:09:18.580Z,0.75
2022-09-03T12:12:03.724Z,0.70
2022-09-03T12:14:53.080Z,0.85
2022-09-03T12:18:10.259Z,0.75
2022-09-03T12:20:36.884Z,0.88
2022-09-03T12:23:03.956Z,0.65
2022-09-03T12:25:30.834Z,0.70
2022-09-03T12:28:03.050Z,0.80
2022-09-03T12:30:30.327Z,0.60
2022-09-03T12:33:07.419Z,1.02
2022-09-03T12:38:25.853Z,0.90
2022-09-03T12:43:40.817Z,0.80
2022-09-03T12:46:15.615Z,0.80
2022-09-03T12:52:11.289Z,0.70
2022-09-03T12:55:27.108Z,0.70
2022-09-03T12:58:03.173Z,0.70
2022-09-03T13:00:33.771Z,0.80
2022-09-03T13:03:23.202Z,0.73
2022-09-03T13:05:57.203Z,0.70
2022-09-03T13:08:28.121Z,1.00
2022-09-03T13:10:58.425Z,0.80
2022-09-03T13:13:33.817Z,0.73
2022-09-03T13:16:09.286Z,0.70
2022-09-03T13:19:02.373Z,0.63
2022-09-03T13:21:41.092Z,0.80
2022-09-03T13:24:28.727Z,0.80
2022-09-03T13:27:06.080Z,0.80
2022-09-03T13:30:02.258Z,0.80
2022-09-03T13:32:42.299Z,0.65
2022-09-03T13:35:27.049Z,0.70
2022-09-03T13:38:09.605Z,0.60
2022-09-03T13:41:00.584Z,0.80
2022-09-03T13:43:42.479Z,0.63
2022-09-03T13:46:32.408Z,0.60
2022-09-03T13:49:40.052Z,0.80
2022-09-03T13:52:24.287Z,0.77
2022-09-03T13:54:58.038Z,0.70
2022-09-03T13:57:47.745Z,0.90
2022-09-03T14:00:34.505Z,0.88
2022-09-03T14:03:24.256Z,0.70
2022-09-03T14:05:56.266Z,0.90
2022-09-03T14:08:30.866Z,0.80
2022-09-03T14:11:18.672Z,0.85
2022-09-03T14:13:57.720Z,0.88
2022-09-03T14:16:55.372Z,0.80
2022-09-03T14:19:43.051Z,1.17
2022-09-03T14:22:16.089Z,0.90
2022-09-03T14:24:48.512Z,0.77
2022-09-03T14:27:27.269Z,0.90
2022-09-03T14:30:03.976Z,0.90
2022-09-03T14:33:06.672Z,0.65
2022-09-03T14:35:47.381Z,0.80
2022-09-03T14:38:13.916Z,0.68
2022-09-03T14:40:46.441Z,0.80
2022-09-03T14:43:28.219Z,0.90
2022-09-03T14:46:15.045Z,0.70
2022-09-03T14:49:01.807Z,0.60
2022-09-03T14:51:37.260Z,0.60
2022-09-03T14:54:15.935Z,0.60
2022-09-03T14:57:02.299Z,0.60
2022-09-03T15:00:00.557Z,0.80
2022-09-03T15:02:48.001Z,0.80
2022-09-03T15:05:46.977Z,0.80
2022-09-03T15:08:41.206Z,0.82
2022-09-03T15:11:22.087Z,0.82
2022-09-03T15:14:15.578Z,1.02
2022-09-03T15:16:48.270Z,0.80
2022-09-03T15:19:47.090Z,0.70
2022-09-03T15:22:49.323Z,0.77
2022-09-03T15:25:26.934Z,0.40
2022-09-03T15:28:24.338Z,0.98
2022-09-03T15:31:21.205Z,0.68
2022-09-03T15:34:12.936Z,0.57
2022-09-03T15:36:53.851Z,0.80
2022-09-03T15:39:23.583Z,0.65
2022-09-03T15:42:10.230Z,0.57
2022-09-03T15:44:47.310Z,0.77
2022-09-03T15:47:50.879Z,0.60
2022-09-03T15:50:36.222Z,0.73
2022-09-03T15:53:05.905Z,0.88
2022-09-03T15:55:37.453Z,0.80
2022-09-03T15:58:22.281Z,0.70
2022-09-03T16:01:00.074Z,0.70
2022-09-03T16:03:46.694Z,0.63
2022-09-03T16:06:38.364Z,0.60
2022-09-03T16:09:44.048Z,0.95
2022-09-03T16:12:36.030Z,0.68
2022-09-03T16:15:44.643Z,0.70
2022-09-03T16:18:30.083Z,0.60
2022-09-03T16:21:05.353Z,0.90
2022-09-03T16:23:37.424Z,0.63
2022-09-03T16:26:10.953Z,0.70
2022-09-03T16:28:53.643Z,0.90
2022-09-03T16:31:31.932Z,0.80
2022-09-03T16:34:21.884Z,1.00
2022-09-03T16:37:28.849Z,0.85
2022-09-03T16:40:14.261Z,0.90
2022-09-03T16:42:57.298Z,0.70
2022-09-03T16:45:51.681Z,0.80
2022-09-03T16:48:46.944Z,0.93
2022-09-03T16:51:18.844Z,0.90
2022-09-03T16:54:19.684Z,0.80
2022-09-03T16:57:24.370Z,1.05
2022-09-03T17:00:03.904Z,0.90
2022-09-03T17:02:47.138Z,1.10
2022-09-03T17:05:28.976Z,1.20
2022-09-03T17:08:14.433Z,1.10
2022-09-03T17:11:13.359Z,0.90
2022-09-03T17:14:17.628Z,0.90
2022-09-03T17:17:27.008Z,1.10
2022-09-03T17:19:57.992Z,1.13
2022-09-03T17:22:49.829Z,1.63
2022-09-03T17:25:30.479Z,1.30
2022-09-03T17:28:25.410Z,1.40
2022-09-03T17:30:59.215Z,1.30
2022-09-03T17:33:45.532Z,1.15
2022-09-03T17:36:21.952Z,0.90
2022-09-03T17:39:07.547Z,1.42
2022-09-03T17:41:48.044Z,0.93
2022-09-03T17:44:21.532Z,1.65
2022-09-03T17:47:07.218Z,1.27
2022-09-03T17:49:51.301Z,0.93
2022-09-03T17:52:29.512Z,0.90
2022-09-03T17:55:00.695Z,1.10
2022-09-03T17:57:40.073Z,1.15
2022-09-03T18:00:09.985Z,0.95
2022-09-03T18:02:51.140Z,1.20
2022-09-03T18:05:41.367Z,1.00
2022-09-03T18:08:29.897Z,1.27
2022-09-03T18:10:56.453Z,1.30
2022-09-03T18:13:47.668Z,1.20
2022-09-03T18:16:29.303Z,1.10
2022-09-03T18:19:06.501Z,1.13
2022-09-03T18:21:55.977Z,1.23
2022-09-03T18:25:01.699Z,0.93
2022-09-03T18:28:04.718Z,0.82
2022-09-03T18:30:52.232Z,1.10
2022-09-03T18:33:42.638Z,0.93
2022-09-03T18:36:28.942Z,1.00
2022-09-03T18:39:21.821Z,1.20
2022-09-03T18:42:20.986Z,1.17
2022-09-03T18:45:41.966Z,0.90
2022-09-03T18:48:45.282Z,1.00
2022-09-03T18:51:38.600Z,1.00
2022-09-03T18:55:08.354Z,0.90
2022-09-03T18:58:15.073Z,1.27
2022-09-03T19:01:22.833Z,0.90
2022-09-03T19:04:36.324Z,0.80
2022-09-03T19:07:30.203Z,1.00
2022-09-03T19:10:18.121Z,0.80
2022-09-03T19:13:09.198Z,0.90
2022-09-03T19:16:21.189Z,0.90
2022-09-03T19:19:13.735Z,0.80
2022-09-03T19:22:05.818Z,0.95
2022-09-03T19:24:51.472Z,0.88
2022-09-03T19:28:00.226Z,0.98
2022-09-03T19:31:00.822Z,0.90
2022-09-03T19:34:22.383Z,0.90
2022-09-03T19:37:32.185Z,0.88
2022-09-03T19:40:46.665Z,0.70
2022-09-03T19:43:58.832Z,0.70
2022-09-03T19:47:12.945Z,0.70
2022-09-03T19:50:18.617Z,0.70
2022-09-03T19:53:14.089Z,0.70
2022-09-03T19:56:11.047Z,1.00
2022-09-03T19:59:01.974Z,0.80
2022-09-03T20:01:53.049Z,0.90
2022-09-03T20:04:43.525Z,0.80
2022-09-03T20:07:28.964Z,0.98
2022-09-03T20:10:18.598Z,1.00
2022-09-03T20:13:08.230Z,0.73
2022-09-03T20:15:53.268Z,0.80
2022-09-03T20:18:55.016Z,0.95
2022-09-03T20:21:37.798Z,0.80
2022-09-03T20:24:46.130Z,1.08
2022-09-03T20:27:12.631Z,0.80
2022-09-03T20:30:04.949Z,0.90
2022-09-03T20:33:04.613Z,1.20
2022-09-03T20:35:40.120Z,1.23
2022-09-03T20:38:37.999Z,0.93
2022-09-03T20:41:23.285Z,1.02
2022-09-03T20:43:59.157Z,0.90
2022-09-03T20:46:36.209Z,1.00
2022-09-03T20:49:21.849Z,1.00
2022-09-03T20:52:18.735Z,1.02
2022-09-03T20:54:56.974Z,0.85
2022-09-03T20:57:32.627Z,0.95
2022-09-03T21:00:15.291Z,1.00
2022-09-03T21:03:03.892Z,1.10
2022-09-03T21:05:58.027Z,0.90
2022-09-03T21:08:53.509Z,0.95
2022-09-03T21:11:28.376Z,0.95
2022-09-03T21:13:57.695Z,1.00
2022-09-03T21:16:51.482Z,0.98
2022-09-03T21:19:36.133Z,1.25
2022-09-03T21:22:23.488Z,1.23
2022-09-03T21:24:58.774Z,1.70
2022-09-03T21:27:51.073Z,1.13
2022-09-03T21:30:19.643Z,1.35
2022-09-03T21:32:56.750Z,1.05
2022-09-03T21:35:29.931Z,0.90
2022-09-03T21:38:16.303Z,0.90
2022-09-03T21:41:24.764Z,1.10
2022-09-03T21:44:11.157Z,1.02
2022-09-03T21:47:22.094Z,1.00
2022-09-03T21:50:16.322Z,1.00
2022-09-03T21:53:15.764Z,1.10
2022-09-03T21:55:53.675Z,0.95
2022-09-03T21:58:57.366Z,1.05
2022-09-03T22:01:38.190Z,0.90
2022-09-03T22:04:04.802Z,1.20
2022-09-03T22:06:54.874Z,1.40
2022-09-03T22:09:29.596Z,1.10
2022-09-03T22:12:23.707Z,0.80
2022-09-03T22:14:53.005Z,1.10
2022-09-03T22:17:58.740Z,0.98
2022-09-03T22:20:27.860Z,1.02
2022-09-03T22:23:07.554Z,1.10
2022-09-03T22:25:58.904Z,1.00
2022-09-03T22:28:40.136Z,0.90
2022-09-03T22:31:24.499Z,1.02
2022-09-03T22:34:12.041Z,1.02
2022-09-03T22:36:50.459Z,0.98
2022-09-03T22:39:40.232Z,1.08
2022-09-03T22:42:10.215Z,1.00
2022-09-03T22:45:05.666Z,1.10
2022-09-03T22:47:45.536Z,1.20
2022-09-03T22:50:38.869Z,1.00
2022-09-03T22:53:23.571Z,1.00
2022-09-03T22:56:08.303Z,1.25
2022-09-03T22:59:13.120Z,1.30
2022-09-03T23:01:55.761Z,1.25
2022-09-03T23:04:58.264Z,1.00
2022-09-03T23:07:45.278Z,1.10
2022-09-03T23:10:18.954Z,0.82
2022-09-03T23:13:14.983Z,0.93
2022-09-03T23:15:42.341Z,1.30
2022-09-03T23:18:19.523Z,1.08
2022-09-03T23:21:15.930Z,1.10
2022-09-03T23:23:50.429Z,1.23
2022-09-03T23:26:40.285Z,1.10
2022-09-03T23:29:29.160Z,1.10
2022-09-03T23:32:05.415Z,1.15
2022-09-03T23:34:33.016Z,1.02
2022-09-03T23:37:36.651Z,1.10
2022-09-03T23:40:55.517Z,1.20
2022-09-03T23:43:40.854Z,1.10
2022-09-03T23:49:54.620Z,1.00
2022-09-03T23:53:01.895Z,1.00
2022-09-03T23:55:55.697Z,0.90
2022-09-03T23:58:48.813Z,0.90
